Time;durP1;ratioP1;P1;durP2;ratioP2;P2;SDS_P1;SDS_P2;PMS_P1;PMS_P2;Temp;Humidity;BMP_temperature;BMP_pressure;BME280_temperature;BME280_humidity;BME280_pressure;Samples;Min_cycle;Max_cycle;Signal;HPM_P1;HPM_P2
2022/10/11 00:00:59;;;;;;;10.52;5.18;;;;;;;;;;2084997;28;20487;-73
2022/10/11 00:02:18;;;;;;;9.73;5.45;;;;;;;;;;2085886;28;20029;-72
2022/10/11 00:03:37;;;;;;;9.63;5.55;;;;;;;;;;2087826;28;20116;-73
2022/10/11 00:04:55;;;;;;;9.23;6.13;;;;;;;;;;2084879;28;20067;-73
2022/10/11 00:06:15;;;;;;;11.90;6.20;;;;;;;;;;2086113;28;20029;-73
2022/10/11 00:07:33;;;;;;;8.00;6.30;;;;;;;;;;2088122;28;20398;-74
2022/10/11 00:08:52;;;;;;;8.52;6.15;;;;;;;;;;2086896;28;20034;-73
2022/10/11 00:10:12;;;;;;;8.50;6.20;;;;;;;;;;2076778;28;20063;-73
2022/10/11 00:11:30;;;;;;;10.40;5.88;;;;;;;;;;2074112;28;20073;-73
2022/10/11 00:12:51;;;;;;;10.50;5.90;;;;;;;;;;2082736;28;20025;-72
2022/10/11 00:14:10;;;;;;;9.95;5.18;;;;;;;;;;2078348;28;20026;-73
2022/10/11 00:15:29;;;;;;;7.20;4.90;;;;;;;;;;2079646;28;20108;-72
2022/10/11 00:16:47;;;;;;;11.43;5.30;;;;;;;;;;2086160;28;20045;-72
2022/10/11 00:18:06;;;;;;;10.93;5.35;;;;;;;;;;2078258;28;20038;-74
2022/10/11 00:19:25;;;;;;;7.68;5.38;;;;;;;;;;2075596;28;20033;-73
2022/10/11 00:20:44;;;;;;;7.50;4.93;;;;;;;;;;2078185;28;20062;-73
2022/10/11 00:22:03;;;;;;;6.88;5.00;;;;;;;;;;2083599;28;20103;-73
2022/10/11 00:23:22;;;;;;;10.55;5.90;;;;;;;;;;2087102;28;20021;-73
2022/10/11 00:24:41;;;;;;;9.00;5.32;;;;;;;;;;2087098;28;20029;-73
2022/10/11 00:26:01;;;;;;;7.07;4.75;;;;;;;;;;2087740;28;20506;-72
2022/10/11 00:27:20;;;;;;;9.63;5.13;;;;;;;;;;2088021;28;20033;-73
2022/10/11 00:28:39;;;;;;;6.25;5.07;;;;;;;;;;2086590;28;20037;-73
2022/10/11 00:29:59;;;;;;;8.25;5.35;;;;;;;;;;2087999;28;20045;-73
2022/10/11 00:31:17;;;;;;;7.20;4.57;;;;;;;;;;2078020;28;20491;-72
2022/10/11 00:32:37;;;;;;;10.55;5.68;;;;;;;;;;2083287;28;20041;-73
2022/10/11 00:33:56;;;;;;;12.20;5.32;;;;;;;;;;2088731;28;20485;-73
2022/10/11 00:35:15;;;;;;;6.05;5.28;;;;;;;;;;2088491;28;20036;-73
2022/10/11 00:36:34;;;;;;;8.52;5.13;;;;;;;;;;2086650;28;20029;-72
2022/10/11 00:37:55;;;;;;;8.43;5.28;;;;;;;;;;2089122;28;20120;-73
2022/10/11 00:39:14;;;;;;;9.10;5.40;;;;;;;;;;2079628;28;20453;-72
2022/10/11 00:40:33;;;;;;;9.35;4.50;;;;;;;;;;2073755;28;20494;-73
2022/10/11 00:41:51;;;;;;;6.65;4.95;;;;;;;;;;2082400;28;20021;-75
2022/10/11 00:43:14;;;;;;;8.88;4.75;;;;;;;;;;2079322;28;20037;-73
2022/10/11 00:44:33;;;;;;;6.97;4.55;;;;;;;;;;2084260;28;20073;-72
2022/10/11 00:45:55;;;;;;;7.95;5.13;;;;;;;;;;2077898;28;20046;-73
2022/10/11 00:47:15;;;;;;;5.45;4.43;;;;;;;;;;2083957;28;20029;-73
2022/10/11 00:48:34;;;;;;;6.65;4.93;;;;;;;;;;2086042;28;20542;-72
2022/10/11 00:49:55;;;;;;;6.13;4.82;;;;;;;;;;2079650;28;20033;-74
2022/10/11 00:51:19;;;;;;;8.10;5.28;;;;;;;;;;2085217;28;20064;-73
2022/10/11 00:52:40;;;;;;;7.90;5.18;;;;;;;;;;2086012;28;20033;-72
2022/10/11 00:54:00;;;;;;;11.38;5.20;;;;;;;;;;2085660;28;20025;-75
2022/10/11 00:55:19;;;;;;;9.70;5.00;;;;;;;;;;2088421;28;20489;-72
2022/10/11 00:56:39;;;;;;;9.13;5.18;;;;;;;;;;2084059;28;20041;-73
2022/10/11 00:57:58;;;;;;;6.47;4.97;;;;;;;;;;2087156;28;20033;-72
2022/10/11 00:59:20;;;;;;;12.20;5.22;;;;;;;;;;2087994;28;20048;-73
2022/10/11 01:00:40;;;;;;;5.85;4.25;;;;;;;;;;2086748;28;20481;-72
2022/10/11 01:01:59;;;;;;;7.72;4.63;;;;;;;;;;2086491;28;20030;-73
2022/10/11 01:03:19;;;;;;;5.97;4.57;;;;;;;;;;2087429;28;20025;-73
2022/10/11 01:04:38;;;;;;;7.35;4.78;;;;;;;;;;2085329;28;20041;-72
2022/10/11 01:05:57;;;;;;;5.30;4.40;;;;;;;;;;2086447;28;20033;-73
2022/10/11 01:07:18;;;;;;;8.25;5.15;;;;;;;;;;2078087;28;20163;-75
2022/10/11 01:08:37;;;;;;;6.55;4.95;;;;;;;;;;2083250;28;20021;-72
2022/10/11 01:09:56;;;;;;;7.82;4.60;;;;;;;;;;2087712;28;20041;-73
2022/10/11 01:11:18;;;;;;;8.18;5.30;;;;;;;;;;2086692;28;20037;-73
2022/10/11 01:12:39;;;;;;;8.98;4.95;;;;;;;;;;2085800;28;20037;-73
2022/10/11 01:13:58;;;;;;;6.25;4.95;;;;;;;;;;2085074;28;20072;-73
2022/10/11 01:15:17;;;;;;;6.45;4.68;;;;;;;;;;2086613;28;20025;-73
2022/10/11 01:16:36;;;;;;;8.23;4.90;;;;;;;;;;2086464;28;20060;-73
2022/10/11 01:18:14;;;;;;;6.20;4.70;;;;;;;;;;2086894;28;20056;-72
2022/10/11 01:19:52;;;;;;;5.40;4.65;;;;;;;;;;2080644;28;20510;-73
2022/10/11 01:21:29;;;;;;;8.60;4.50;;;;;;;;;;2077617;28;20034;-73
2022/10/11 01:23:07;;;;;;;9.48;5.35;;;;;;;;;;2078032;28;20542;-72
2022/10/11 01:24:33;;;;;;;7.43;4.82;;;;;;;;;;2088300;28;20119;-72
2022/10/11 01:25:55;;;;;;;7.95;4.95;;;;;;;;;;2080264;28;20029;-74
2022/10/11 01:27:24;;;;;;;7.28;4.60;;;;;;;;;;2083956;28;20033;-73
2022/10/11 01:28:46;;;;;;;6.28;5.13;;;;;;;;;;2087186;28;20029;-73
2022/10/11 01:30:22;;;;;;;12.02;5.00;;;;;;;;;;2087957;28;20028;-76
2022/10/11 01:31:52;;;;;;;10.80;4.95;;;;;;;;;;2089626;28;20534;-72
2022/10/11 01:33:17;;;;;;;6.38;4.97;;;;;;;;;;2088976;28;20033;-73
2022/10/11 01:34:48;;;;;;;7.47;5.18;;;;;;;;;;2088172;28;20029;-73
2022/10/11 01:36:10;;;;;;;5.15;4.57;;;;;;;;;;2088689;28;20107;-75
2022/10/11 01:37:32;;;;;;;9.10;5.60;;;;;;;;;;2088400;28;20025;-73
2022/10/11 01:39:11;;;;;;;5.82;4.50;;;;;;;;;;2086820;28;20382;-72
2022/10/11 01:40:32;;;;;;;10.38;5.38;;;;;;;;;;2087785;28;20065;-73
2022/10/11 01:41:53;;;;;;;6.30;5.05;;;;;;;;;;2088767;28;20065;-73
2022/10/11 01:43:12;;;;;;;11.98;5.25;;;;;;;;;;2089178;28;20028;-72
2022/10/11 01:44:33;;;;;;;5.65;4.97;;;;;;;;;;2087631;28;20453;-73
2022/10/11 01:45:53;;;;;;;8.48;5.22;;;;;;;;;;2078113;28;20033;-73
2022/10/11 01:47:13;;;;;;;5.78;4.85;;;;;;;;;;2085724;28;20028;-73
2022/10/11 01:48:31;;;;;;;6.28;5.20;;;;;;;;;;2079929;28;20418;-72
2022/10/11 01:49:58;;;;;;;7.88;5.30;;;;;;;;;;2086144;28;20029;-73
2022/10/11 01:51:23;;;;;;;8.02;5.00;;;;;;;;;;2088771;28;20029;-74
2022/10/11 01:52:43;;;;;;;6.93;5.20;;;;;;;;;;2084159;28;20033;-73
2022/10/11 01:54:12;;;;;;;9.10;5.57;;;;;;;;;;2088894;28;20029;-75
2022/10/11 01:55:42;;;;;;;11.75;5.53;;;;;;;;;;2088011;28;20029;-73
2022/10/11 01:57:23;;;;;;;8.13;5.55;;;;;;;;;;2087739;28;20112;-73
2022/10/11 01:59:00;;;;;;;7.80;5.15;;;;;;;;;;2085673;28;20037;-73
2022/10/11 02:00:22;;;;;;;8.85;5.50;;;;;;;;;;2087615;28;20033;-76
2022/10/11 02:01:41;;;;;;;12.75;6.05;;;;;;;;;;2089731;28;20033;-73
2022/10/11 02:03:06;;;;;;;6.78;5.50;;;;;;;;;;2087626;28;20066;-73
2022/10/11 02:04:25;;;;;;;8.30;5.70;;;;;;;;;;2087963;28;20028;-72
2022/10/11 02:05:59;;;;;;;10.63;5.60;;;;;;;;;;2087928;28;20260;-73
2022/10/11 02:07:21;;;;;;;8.32;4.93;;;;;;;;;;2089370;28;20022;-73
2022/10/11 02:08:57;;;;;;;8.85;5.75;;;;;;;;;;2087095;28;20486;-73
2022/10/11 02:10:19;;;;;;;6.20;4.95;;;;;;;;;;2088523;28;20390;-73
2022/10/11 02:11:38;;;;;;;12.23;5.95;;;;;;;;;;2088526;28;20025;-73
2022/10/11 02:13:04;;;;;;;7.75;5.68;;;;;;;;;;2078650;28;20421;-74
2022/10/11 02:14:25;;;;;;;5.57;5.00;;;;;;;;;;2084910;28;20029;-73
2022/10/11 02:15:45;;;;;;;7.18;5.35;;;;;;;;;;2085322;28;20032;-73
2022/10/11 02:17:26;;;;;;;9.07;5.03;;;;;;;;;;2087857;28;20437;-72
2022/10/11 02:18:46;;;;;;;6.63;4.88;;;;;;;;;;2086477;28;20413;-73
2022/10/11 02:20:07;;;;;;;6.10;4.90;;;;;;;;;;2087160;28;20032;-74
2022/10/11 02:21:28;;;;;;;8.25;5.60;;;;;;;;;;2088649;28;20108;-73
2022/10/11 02:22:49;;;;;;;9.15;5.43;;;;;;;;;;2088051;28;20033;-73
2022/10/11 02:24:11;;;;;;;5.78;5.13;;;;;;;;;;2086793;28;20052;-73
2022/10/11 02:25:32;;;;;;;7.60;5.88;;;;;;;;;;2087720;28;20025;-73
2022/10/11 02:26:53;;;;;;;10.82;5.00;;;;;;;;;;2086853;28;20025;-73
2022/10/11 02:28:25;;;;;;;8.40;5.18;;;;;;;;;;2078475;28;20033;-73
2022/10/11 02:29:46;;;;;;;6.85;4.72;;;;;;;;;;2085301;28;20513;-73
2022/10/11 02:31:06;;;;;;;6.55;4.82;;;;;;;;;;2077269;28;20034;-72
2022/10/11 02:32:26;;;;;;;7.20;4.82;;;;;;;;;;2084365;28;20021;-73
2022/10/11 02:34:14;;;;;;;7.78;5.13;;;;;;;;;;2087428;28;20044;-73
2022/10/11 02:35:36;;;;;;;9.48;5.13;;;;;;;;;;2080938;28;20048;-74
2022/10/11 02:37:04;;;;;;;6.07;3.90;;;;;;;;;;2074572;28;20033;-73
2022/10/11 02:38:34;;;;;;;7.05;4.35;;;;;;;;;;2082690;28;20041;-72
2022/10/11 02:39:55;;;;;;;7.90;4.70;;;;;;;;;;2079263;28;20029;-73
2022/10/11 02:41:18;;;;;;;6.90;4.00;;;;;;;;;;2084275;28;20056;-73
2022/10/11 02:42:41;;;;;;;6.30;4.22;;;;;;;;;;2087242;28;20021;-72
2022/10/11 02:44:07;;;;;;;6.15;4.50;;;;;;;;;;2088408;28;20497;-72
2022/10/11 02:45:31;;;;;;;6.18;4.45;;;;;;;;;;2078029;28;20437;-72
2022/10/11 02:46:51;;;;;;;6.25;4.20;;;;;;;;;;2084782;28;20025;-72
2022/10/11 02:48:10;;;;;;;5.43;4.30;;;;;;;;;;2087124;28;20033;-72
2022/10/11 02:49:30;;;;;;;9.25;4.82;;;;;;;;;;2088682;28;20482;-72
2022/10/11 02:50:49;;;;;;;6.30;4.40;;;;;;;;;;2088068;28;20075;-73
2022/10/11 02:52:08;;;;;;;9.65;4.47;;;;;;;;;;2086854;28;20478;-73
2022/10/11 02:53:28;;;;;;;4.80;4.30;;;;;;;;;;2088280;28;20112;-74
2022/10/11 02:54:47;;;;;;;4.68;4.28;;;;;;;;;;2088225;28;20032;-73
2022/10/11 02:56:06;;;;;;;8.48;4.80;;;;;;;;;;2087319;28;20429;-73
2022/10/11 02:57:24;;;;;;;4.63;4.22;;;;;;;;;;2087952;28;20041;-73
2022/10/11 02:58:43;;;;;;;5.18;4.10;;;;;;;;;;2082960;28;20481;-74
2022/10/11 03:00:03;;;;;;;5.43;4.30;;;;;;;;;;2087592;28;20119;-75
2022/10/11 03:01:22;;;;;;;7.72;4.43;;;;;;;;;;2089454;28;20040;-73
2022/10/11 03:02:41;;;;;;;4.55;4.18;;;;;;;;;;2086977;28;20028;-73
2022/10/11 03:04:00;;;;;;;7.43;4.50;;;;;;;;;;2078670;28;20037;-74
2022/10/11 03:05:21;;;;;;;8.32;4.60;;;;;;;;;;2083943;28;20541;-73
2022/10/11 03:06:40;;;;;;;5.82;4.63;;;;;;;;;;2086912;28;20033;-73
2022/10/11 03:07:59;;;;;;;7.97;4.70;;;;;;;;;;2088932;28;20033;-73
2022/10/11 03:09:18;;;;;;;7.43;4.85;;;;;;;;;;2082902;28;20029;-73
2022/10/11 03:10:38;;;;;;;7.07;4.60;;;;;;;;;;2079197;28;20049;-73
2022/10/11 03:11:57;;;;;;;6.00;4.72;;;;;;;;;;2084160;28;20420;-73
2022/10/11 03:13:16;;;;;;;7.13;5.38;;;;;;;;;;2088162;28;20033;-73
2022/10/11 03:14:34;;;;;;;6.38;4.40;;;;;;;;;;2085422;28;20482;-73
2022/10/11 03:15:54;;;;;;;4.47;4.07;;;;;;;;;;2086761;28;20036;-74
2022/10/11 03:17:13;;;;;;;6.53;4.63;;;;;;;;;;2087610;28;20506;-73
2022/10/11 03:18:32;;;;;;;5.00;4.47;;;;;;;;;;2086126;28;20482;-74
2022/10/11 03:19:51;;;;;;;4.85;4.38;;;;;;;;;;2087074;28;20029;-74
2022/10/11 03:21:10;;;;;;;6.40;4.28;;;;;;;;;;2088502;28;20025;-73
2022/10/11 03:22:29;;;;;;;7.22;4.05;;;;;;;;;;2086499;28;20025;-73
2022/10/11 03:23:48;;;;;;;5.03;4.45;;;;;;;;;;2080139;28;20036;-73
2022/10/11 03:25:07;;;;;;;6.30;3.88;;;;;;;;;;2084877;28;20065;-73
2022/10/11 03:26:26;;;;;;;4.50;4.10;;;;;;;;;;2087628;28;20028;-73
2022/10/11 03:27:45;;;;;;;5.72;3.95;;;;;;;;;;2078804;28;20446;-74
2022/10/11 03:29:04;;;;;;;9.20;4.03;;;;;;;;;;2083885;28;20021;-75
2022/10/11 03:30:23;;;;;;;4.15;3.80;;;;;;;;;;2086232;28;20044;-76
2022/10/11 03:31:42;;;;;;;4.25;3.83;;;;;;;;;;2089171;28;20029;-74
2022/10/11 03:33:01;;;;;;;4.80;4.40;;;;;;;;;;2088100;28;20068;-73
2022/10/11 03:34:23;;;;;;;6.18;4.00;;;;;;;;;;2085310;28;20033;-73
2022/10/11 03:35:46;;;;;;;6.40;4.38;;;;;;;;;;2087248;28;20503;-73
2022/10/11 03:37:04;;;;;;;4.20;3.90;;;;;;;;;;2088876;28;20691;-76
2022/10/11 03:38:23;;;;;;;4.63;4.22;;;;;;;;;;2087428;28;20033;-73
2022/10/11 03:39:44;;;;;;;4.63;3.50;;;;;;;;;;2086509;28;21784;-73
2022/10/11 03:41:03;;;;;;;4.35;3.80;;;;;;;;;;2086981;28;20104;-72
2022/10/11 03:42:22;;;;;;;4.97;3.90;;;;;;;;;;2077971;28;20037;-73
2022/10/11 03:43:41;;;;;;;6.72;4.32;;;;;;;;;;2078848;28;20064;-73
2022/10/11 03:45:03;;;;;;;3.92;3.53;;;;;;;;;;2082099;28;20021;-73
2022/10/11 03:46:22;;;;;;;3.65;3.08;;;;;;;;;;2085802;28;20511;-73
2022/10/11 03:47:41;;;;;;;3.90;3.53;;;;;;;;;;2079665;28;20120;-73
2022/10/11 03:49:00;;;;;;;3.80;3.50;;;;;;;;;;2083661;28;20056;-73
2022/10/11 03:50:19;;;;;;;5.35;3.33;;;;;;;;;;2086775;28;20033;-73
2022/10/11 03:51:38;;;;;;;4.35;4.05;;;;;;;;;;2088405;28;20025;-72
2022/10/11 03:52:57;;;;;;;5.93;3.75;;;;;;;;;;2087470;28;20081;-72
2022/10/11 03:54:16;;;;;;;3.45;3.15;;;;;;;;;;2086633;28;20033;-76
2022/10/11 03:55:36;;;;;;;4.85;3.53;;;;;;;;;;2087304;28;20064;-73
2022/10/11 03:56:57;;;;;;;4.15;3.63;;;;;;;;;;2080866;28;20033;-71
2022/10/11 03:58:16;;;;;;;3.85;3.55;;;;;;;;;;2083524;28;20545;-73
2022/10/11 03:59:35;;;;;;;5.15;3.50;;;;;;;;;;2087548;28;20112;-75
2022/10/11 04:00:54;;;;;;;5.10;3.70;;;;;;;;;;2087022;28;20108;-73
2022/10/11 04:02:13;;;;;;;5.85;3.65;;;;;;;;;;2086969;28;20446;-74
2022/10/11 04:03:32;;;;;;;5.55;3.63;;;;;;;;;;2079156;28;20131;-74
2022/10/11 04:04:51;;;;;;;5.97;3.10;;;;;;;;;;2081319;28;20477;-71
2022/10/11 04:06:09;;;;;;;6.03;3.20;;;;;;;;;;2087622;28;20481;-73
2022/10/11 04:07:28;;;;;;;3.75;3.45;;;;;;;;;;2078730;28;20022;-72
2022/10/11 04:08:47;;;;;;;6.35;3.42;;;;;;;;;;2077980;28;20026;-72
2022/10/11 04:10:06;;;;;;;3.95;3.58;;;;;;;;;;2083078;28;20675;-73
2022/10/11 04:11:25;;;;;;;4.60;3.35;;;;;;;;;;2077207;28;20037;-72
2022/10/11 04:12:45;;;;;;;4.13;3.45;;;;;;;;;;2083489;28;20037;-72
2022/10/11 04:14:04;;;;;;;4.97;3.05;;;;;;;;;;2088002;28;20037;-72
2022/10/11 04:15:23;;;;;;;4.55;3.13;;;;;;;;;;2076106;28;20041;-72
2022/10/11 04:16:42;;;;;;;3.40;3.10;;;;;;;;;;2083392;28;20037;-72
2022/10/11 04:18:01;;;;;;;3.92;3.10;;;;;;;;;;2079630;28;20026;-72
2022/10/11 04:19:20;;;;;;;3.83;3.20;;;;;;;;;;2085480;28;20033;-72
2022/10/11 04:20:39;;;;;;;4.15;2.95;;;;;;;;;;2086130;28;20060;-73
2022/10/11 04:21:58;;;;;;;2.85;2.65;;;;;;;;;;2087695;28;20457;-73
2022/10/11 04:23:17;;;;;;;4.32;3.50;;;;;;;;;;2087654;28;20045;-72
2022/10/11 04:24:36;;;;;;;2.85;2.65;;;;;;;;;;2077376;28;20483;-73
2022/10/11 04:25:55;;;;;;;3.55;3.10;;;;;;;;;;2082777;28;20490;-72
2022/10/11 04:27:14;;;;;;;5.10;3.15;;;;;;;;;;2088847;28;20033;-73
2022/10/11 04:28:34;;;;;;;5.05;3.10;;;;;;;;;;2086536;28;20032;-72
2022/10/11 04:29:53;;;;;;;2.95;2.53;;;;;;;;;;2087579;28;20029;-73
2022/10/11 04:31:11;;;;;;;6.63;2.92;;;;;;;;;;2086673;28;20069;-73
2022/10/11 04:32:30;;;;;;;3.72;2.80;;;;;;;;;;2087243;28;20401;-73
2022/10/11 04:33:49;;;;;;;3.22;2.65;;;;;;;;;;2079862;28;20034;-72
2022/10/11 04:35:08;;;;;;;3.85;3.05;;;;;;;;;;2074229;28;20065;-76
2022/10/11 04:36:27;;;;;;;4.93;2.70;;;;;;;;;;2082127;28;20033;-72
2022/10/11 04:37:46;;;;;;;4.45;2.70;;;;;;;;;;2088331;28;20029;-73
2022/10/11 04:39:05;;;;;;;4.68;2.28;;;;;;;;;;2087587;28;20398;-73
2022/10/11 04:40:24;;;;;;;2.45;2.10;;;;;;;;;;2084732;28;20049;-72
2022/10/11 04:41:43;;;;;;;2.95;2.15;;;;;;;;;;2086091;28;20108;-72
2022/10/11 04:43:02;;;;;;;4.88;2.50;;;;;;;;;;2087598;28;20025;-73
2022/10/11 04:44:22;;;;;;;3.42;2.10;;;;;;;;;;2078255;28;20337;-75
2022/10/11 04:45:41;;;;;;;2.78;2.28;;;;;;;;;;2079385;28;20064;-72
2022/10/11 04:47:00;;;;;;;4.78;2.50;;;;;;;;;;2087218;28;20022;-76
2022/10/11 04:48:19;;;;;;;5.90;2.67;;;;;;;;;;2077347;28;20518;-72
2022/10/11 04:49:37;;;;;;;6.53;2.33;;;;;;;;;;2083527;28;20143;-72
2022/10/11 04:50:56;;;;;;;7.20;2.53;;;;;;;;;;2086245;28;20048;-73
2022/10/11 04:52:15;;;;;;;2.60;2.35;;;;;;;;;;2088208;28;20041;-73
2022/10/11 04:53:34;;;;;;;4.47;2.50;;;;;;;;;;2089355;28;20028;-72
2022/10/11 04:54:53;;;;;;;2.53;2.05;;;;;;;;;;2078006;28;20030;-72
2022/10/11 04:56:13;;;;;;;3.53;2.00;;;;;;;;;;2083991;28;20025;-72
2022/10/11 04:57:33;;;;;;;5.28;2.67;;;;;;;;;;2089705;28;20029;-73
2022/10/11 04:58:53;;;;;;;4.97;2.35;;;;;;;;;;2088013;28;20478;-73
2022/10/11 05:00:13;;;;;;;3.05;1.75;;;;;;;;;;2087432;28;20037;-72
2022/10/11 05:01:32;;;;;;;3.80;2.10;;;;;;;;;;2080331;28;20021;-72
2022/10/11 05:02:51;;;;;;;4.95;2.13;;;;;;;;;;2083874;28;20032;-75
2022/10/11 05:04:10;;;;;;;4.10;2.22;;;;;;;;;;2078876;28;20502;-72
2022/10/11 05:05:29;;;;;;;6.90;2.13;;;;;;;;;;2082454;28;20036;-73
2022/10/11 05:06:48;;;;;;;4.47;2.10;;;;;;;;;;2079917;28;20070;-73
2022/10/11 05:08:07;;;;;;;2.90;2.05;;;;;;;;;;2077357;28;20170;-74
2022/10/11 05:09:26;;;;;;;3.72;2.22;;;;;;;;;;2082421;28;20469;-74
2022/10/11 05:10:58;;;;;;;3.08;1.65;;;;;;;;;;2088289;28;20032;-74
2022/10/11 05:12:17;;;;;;;5.97;1.80;;;;;;;;;;2089153;28;20533;-75
2022/10/11 05:13:36;;;;;;;4.85;2.15;;;;;;;;;;2080180;28;20025;-73
2022/10/11 05:14:56;;;;;;;5.82;1.50;;;;;;;;;;2081540;28;20029;-73
2022/10/11 05:16:15;;;;;;;4.15;1.80;;;;;;;;;;2078883;28;20025;-74
2022/10/11 05:17:34;;;;;;;4.53;2.05;;;;;;;;;;2080186;28;20034;-74
2022/10/11 05:18:53;;;;;;;4.85;2.00;;;;;;;;;;2077361;28;20112;-75
2022/10/11 05:20:12;;;;;;;3.47;1.45;;;;;;;;;;2084855;28;20041;-74
2022/10/11 05:21:31;;;;;;;3.28;1.30;;;;;;;;;;2088783;28;20490;-77
2022/10/11 05:22:50;;;;;;;3.97;1.30;;;;;;;;;;2088730;28;20067;-75
2022/10/11 05:24:09;;;;;;;3.17;1.60;;;;;;;;;;2088960;28;20493;-77
2022/10/11 05:25:28;;;;;;;2.80;1.60;;;;;;;;;;2086259;28;20534;-75
2022/10/11 05:26:48;;;;;;;4.82;1.73;;;;;;;;;;2086191;28;20040;-76
2022/10/11 05:28:07;;;;;;;3.22;1.50;;;;;;;;;;2088634;28;20339;-78
2022/10/11 05:29:25;;;;;;;3.25;1.38;;;;;;;;;;2089816;28;20025;-75
2022/10/11 05:30:44;;;;;;;5.63;1.40;;;;;;;;;;2085979;28;20112;-74
2022/10/11 05:32:03;;;;;;;3.33;1.58;;;;;;;;;;2079281;28;20029;-75
2022/10/11 05:33:22;;;;;;;7.00;1.58;;;;;;;;;;2087007;28;20506;-75
2022/10/11 05:34:41;;;;;;;3.65;1.58;;;;;;;;;;2088669;28;20055;-74
2022/10/11 05:36:00;;;;;;;4.22;1.10;;;;;;;;;;2079084;28;20845;-74
2022/10/11 05:37:19;;;;;;;2.28;0.90;;;;;;;;;;2084892;28;20037;-74
2022/10/11 05:38:37;;;;;;;4.05;0.98;;;;;;;;;;2079196;28;20025;-73
2022/10/11 05:39:57;;;;;;;4.15;1.10;;;;;;;;;;2086063;28;20073;-74
2022/10/11 05:41:16;;;;;;;5.85;1.25;;;;;;;;;;2087721;28;20033;-75
2022/10/11 05:42:35;;;;;;;4.78;1.73;;;;;;;;;;2077633;28;20033;-74
2022/10/11 05:43:54;;;;;;;4.60;1.10;;;;;;;;;;2085686;28;20089;-73
2022/10/11 05:45:13;;;;;;;6.28;1.23;;;;;;;;;;2085563;28;20041;-73
2022/10/11 05:46:32;;;;;;;5.35;1.23;;;;;;;;;;2087990;28;20029;-73
2022/10/11 05:47:51;;;;;;;4.20;1.45;;;;;;;;;;2078222;28;20026;-75
2022/10/11 05:49:10;;;;;;;5.40;1.23;;;;;;;;;;2085677;28;20021;-73
2022/10/11 05:50:29;;;;;;;4.00;0.90;;;;;;;;;;2080266;28;20026;-74
2022/10/11 05:51:48;;;;;;;5.97;1.10;;;;;;;;;;2076467;28;20041;-74
2022/10/11 05:53:07;;;;;;;4.53;1.63;;;;;;;;;;2085371;28;20037;-74
2022/10/11 05:54:28;;;;;;;5.28;1.35;;;;;;;;;;2088693;28;20486;-74
2022/10/11 05:55:47;;;;;;;4.82;1.27;;;;;;;;;;2078078;28;20112;-73
2022/10/11 05:57:06;;;;;;;4.40;0.90;;;;;;;;;;2081799;28;20469;-73
2022/10/11 05:58:24;;;;;;;3.10;1.20;;;;;;;;;;2085698;28;20100;-72
2022/10/11 05:59:43;;;;;;;4.38;1.25;;;;;;;;;;2087192;28;20045;-76
2022/10/11 06:01:02;;;;;;;6.95;1.00;;;;;;;;;;2079117;28;20082;-74
2022/10/11 06:02:22;;;;;;;5.32;1.60;;;;;;;;;;2083808;28;20033;-73
2022/10/11 06:03:40;;;;;;;4.57;1.10;;;;;;;;;;2083670;28;20065;-73
2022/10/11 06:04:59;;;;;;;5.20;1.27;;;;;;;;;;2079671;28;20037;-72
2022/10/11 06:06:18;;;;;;;4.50;1.10;;;;;;;;;;2074362;28;20121;-73
2022/10/11 06:07:38;;;;;;;3.72;0.80;;;;;;;;;;2084271;28;20034;-73
2022/10/11 06:08:56;;;;;;;4.95;0.90;;;;;;;;;;2088400;28;20029;-73
2022/10/11 06:10:15;;;;;;;7.47;1.83;;;;;;;;;;2086677;28;20458;-73
2022/10/11 06:11:34;;;;;;;5.63;1.30;;;;;;;;;;2086032;28;20056;-73
2022/10/11 06:12:53;;;;;;;6.85;1.50;;;;;;;;;;2085768;28;20048;-76
2022/10/11 06:14:12;;;;;;;8.65;1.80;;;;;;;;;;2088350;28;20111;-74
2022/10/11 06:15:31;;;;;;;3.08;1.20;;;;;;;;;;2076114;28;20539;-76
2022/10/11 06:16:50;;;;;;;6.07;1.25;;;;;;;;;;2084565;28;20644;-74
2022/10/11 06:18:09;;;;;;;5.05;1.58;;;;;;;;;;2086029;28;20691;-73
2022/10/11 06:19:28;;;;;;;5.50;1.60;;;;;;;;;;2088137;28;20036;-73
2022/10/11 06:20:47;;;;;;;4.22;1.40;;;;;;;;;;2089211;28;20466;-73
2022/10/11 06:22:06;;;;;;;7.45;1.10;;;;;;;;;;2087146;28;20037;-72
2022/10/11 06:23:25;;;;;;;5.13;1.08;;;;;;;;;;2079488;28;20105;-72
2022/10/11 06:24:44;;;;;;;10.63;1.77;;;;;;;;;;2085865;28;20128;-73
2022/10/11 06:26:05;;;;;;;9.00;1.80;;;;;;;;;;2086532;28;20024;-76
2022/10/11 06:27:24;;;;;;;14.13;1.60;;;;;;;;;;2079246;28;20037;-77
2022/10/11 06:28:42;;;;;;;3.13;1.33;;;;;;;;;;2084752;28;20394;-73
2022/10/11 06:30:02;;;;;;;9.55;1.20;;;;;;;;;;2087086;28;20045;-72
2022/10/11 06:31:21;;;;;;;6.68;1.50;;;;;;;;;;2071772;28;20431;-73
2022/10/11 06:32:40;;;;;;;5.95;1.15;;;;;;;;;;2082979;28;20037;-77
2022/10/11 06:33:59;;;;;;;4.88;1.17;;;;;;;;;;2088040;28;20041;-73
2022/10/11 06:35:18;;;;;;;6.78;1.27;;;;;;;;;;2086627;28;20394;-73
2022/10/11 06:36:37;;;;;;;4.72;1.20;;;;;;;;;;2087820;28;20482;-73
2022/10/11 06:37:56;;;;;;;6.10;1.40;;;;;;;;;;2084990;28;20053;-73
2022/10/11 06:39:15;;;;;;;5.82;1.45;;;;;;;;;;2086665;28;20033;-73
2022/10/11 06:40:34;;;;;;;2.63;1.20;;;;;;;;;;2086321;28;20041;-75
2022/10/11 06:41:53;;;;;;;7.38;1.90;;;;;;;;;;2087714;28;20111;-73
2022/10/11 06:43:11;;;;;;;5.95;1.02;;;;;;;;;;2088477;28;20486;-74
2022/10/11 06:44:32;;;;;;;6.15;1.50;;;;;;;;;;2087300;28;20025;-75
2022/10/11 06:45:50;;;;;;;7.40;1.30;;;;;;;;;;2087472;28;20041;-74
2022/10/11 06:47:40;;;;;;;4.22;1.40;;;;;;;;;;2084847;28;20109;-76
2022/10/11 06:48:59;;;;;;;5.80;1.75;;;;;;;;;;2078116;28;20029;-74
2022/10/11 06:50:17;;;;;;;6.38;1.13;;;;;;;;;;2084514;28;20382;-73
2022/10/11 06:51:36;;;;;;;2.78;0.90;;;;;;;;;;2086717;28;20577;-76
2022/10/11 06:52:55;;;;;;;3.55;1.05;;;;;;;;;;2086399;28;20029;-75
2022/10/11 06:54:15;;;;;;;6.60;1.45;;;;;;;;;;2089181;28;20406;-76
2022/10/11 06:55:34;;;;;;;7.90;1.13;;;;;;;;;;2080169;28;20038;-74
2022/10/11 06:56:52;;;;;;;6.95;1.38;;;;;;;;;;2082165;28;20116;-75
2022/10/11 06:58:11;;;;;;;8.45;1.25;;;;;;;;;;2087225;28;20033;-75
2022/10/11 06:59:30;;;;;;;3.33;1.00;;;;;;;;;;2083358;28;20045;-80
2022/10/11 07:00:49;;;;;;;9.13;1.83;;;;;;;;;;2080363;28;20029;-75
2022/10/11 07:02:09;;;;;;;6.18;1.85;;;;;;;;;;2075299;28;20037;-74
2022/10/11 07:03:28;;;;;;;4.80;1.17;;;;;;;;;;2071596;28;20025;-76
2022/10/11 07:04:47;;;;;;;8.18;1.42;;;;;;;;;;2082176;28;20029;-75
2022/10/11 07:06:08;;;;;;;7.40;1.25;;;;;;;;;;2087826;28;20037;-74
2022/10/11 07:07:27;;;;;;;5.20;1.38;;;;;;;;;;2085868;28;21196;-74
2022/10/11 07:08:46;;;;;;;4.90;1.25;;;;;;;;;;2085840;28;20025;-75
2022/10/11 07:10:06;;;;;;;5.65;1.15;;;;;;;;;;2086428;28;20063;-74
2022/10/11 07:11:26;;;;;;;4.25;1.23;;;;;;;;;;2084654;28;20044;-75
2022/10/11 07:12:45;;;;;;;7.10;1.73;;;;;;;;;;2083968;28;20041;-75
2022/10/11 07:14:06;;;;;;;7.45;1.98;;;;;;;;;;2079050;28;20033;-75
2022/10/11 07:15:25;;;;;;;6.45;1.50;;;;;;;;;;2075826;28;20025;-75
2022/10/11 07:16:44;;;;;;;9.45;2.10;;;;;;;;;;2073849;28;20521;-77
2022/10/11 07:18:03;;;;;;;6.00;1.52;;;;;;;;;;2080197;28;20021;-78
2022/10/11 07:19:22;;;;;;;5.70;1.40;;;;;;;;;;2088397;28;20029;-75
2022/10/11 07:20:41;;;;;;;5.35;1.55;;;;;;;;;;2086662;28;20072;-76
2022/10/11 07:21:59;;;;;;;5.97;1.33;;;;;;;;;;2077051;28;20746;-74
2022/10/11 07:23:18;;;;;;;3.28;1.15;;;;;;;;;;2080418;28;20236;-79
2022/10/11 07:24:37;;;;;;;3.30;1.23;;;;;;;;;;2077931;28;20026;-75
2022/10/11 07:25:56;;;;;;;5.28;1.30;;;;;;;;;;2083865;28;20025;-74
2022/10/11 07:27:15;;;;;;;5.82;1.10;;;;;;;;;;2086019;28;20021;-75
2022/10/11 07:28:34;;;;;;;7.65;1.67;;;;;;;;;;2084381;28;20029;-76
2022/10/11 07:29:53;;;;;;;6.05;1.50;;;;;;;;;;2077655;28;20050;-76
2022/10/11 07:31:20;;;;;;;7.40;1.33;;;;;;;;;;2074707;28;20029;-75
2022/10/11 07:32:38;;;;;;;7.43;1.70;;;;;;;;;;2081599;28;20025;-76
2022/10/11 07:33:57;;;;;;;6.10;1.23;;;;;;;;;;2083939;28;20096;-79
2022/10/11 07:35:16;;;;;;;3.67;1.40;;;;;;;;;;2085594;28;20024;-75
2022/10/11 07:36:35;;;;;;;8.10;1.35;;;;;;;;;;2080075;28;20422;-76
2022/10/11 07:37:57;;;;;;;6.85;1.55;;;;;;;;;;2070985;28;20041;-79
2022/10/11 07:39:16;;;;;;;5.43;1.10;;;;;;;;;;2071909;28;20034;-82
2022/10/11 07:40:42;;;;;;;6.13;1.25;;;;;;;;;;2080720;28;20037;-75
2022/10/11 07:42:01;;;;;;;6.07;1.10;;;;;;;;;;2087699;28;20029;-77
2022/10/11 07:43:20;;;;;;;8.45;1.65;;;;;;;;;;2077932;28;20515;-76
2022/10/11 07:44:39;;;;;;;6.63;1.02;;;;;;;;;;2076626;28;20648;-76
2022/10/11 07:46:02;;;;;;;7.95;1.23;;;;;;;;;;2084367;28;20056;-77
2022/10/11 07:47:21;;;;;;;5.13;1.48;;;;;;;;;;2084638;28;20032;-76
2022/10/11 07:48:40;;;;;;;6.97;1.33;;;;;;;;;;2076845;28;20533;-76
2022/10/11 07:49:59;;;;;;;3.33;1.08;;;;;;;;;;2082721;28;20029;-81
2022/10/11 07:51:19;;;;;;;3.50;1.30;;;;;;;;;;2076320;28;20033;-77
2022/10/11 07:52:39;;;;;;;2.40;1.05;;;;;;;;;;2083046;28;20104;-76
2022/10/11 07:53:58;;;;;;;5.65;1.25;;;;;;;;;;2085461;28;20398;-76
2022/10/11 07:55:17;;;;;;;6.45;1.63;;;;;;;;;;2086692;28;20029;-78
2022/10/11 07:56:36;;;;;;;6.38;1.20;;;;;;;;;;2087167;28;20041;-76
2022/10/11 07:57:56;;;;;;;6.45;1.45;;;;;;;;;;2080985;28;20445;-75
2022/10/11 07:59:15;;;;;;;5.15;1.42;;;;;;;;;;2084690;28;20120;-77
2022/10/11 08:00:34;;;;;;;3.75;1.00;;;;;;;;;;2078097;28;20152;-75
2022/10/11 08:01:53;;;;;;;3.50;1.40;;;;;;;;;;2075857;28;20025;-75
2022/10/11 08:03:12;;;;;;;6.85;1.23;;;;;;;;;;2079913;28;20024;-77